Please enter the email address for your account. A verification code will be sent to you. Once you have received the verification code, you will be able to choose a new password for your account.

METAR TAF

[Source: ADDS]
METAR
LFCR 210430Z AUTO 19002KT 0450 0400 R31/0600U FG VV/// 06/06 Q1015 BECMG 9999 NSW BKN006 =
LFCR 202300Z 2100/2124 29006KT 9999 BKN025 BECMG 2100/2102 3000 BR OVC003 PROB40 TEMPO 2101/2106 0500 FG VV/// BECMG 2106/2108 9999 NSW BKN006 BECMG 2110/2112 BKN020 PROB40 TEMPO 2114/2118 SHRA SCT022CB BKN035 LFBA 210430Z AUTO 29002KT 1200 0750 R29/1400D BCFG FEW008 BKN240 08/07 Q1017 =
LFSL 210430Z AUTO 31002KT 0400 R29/0500N FG VV/// 07/07 Q1016 TEMPO 0300 =
LFSL 210200Z 2103/2112 VRB02KT 4500 BR NSC TEMPO 2103/2107 0600 FG VV/// PROB40 TEMPO 2103/2107 0300 BECMG 2107/2109 9999 NSW SCT015 LFLW 210430Z AUTO 00000KT 0250 R15/0300N FG VV/// 07/06 Q1015 =
TAF
LFCR 202300Z 2100/2124 29006KT 9999 BKN025 BECMG 2100/2102 3000 BR OVC003 PROB40 TEMPO 2101/2106 0500 FG VV/// BECMG 2106/2108 9999 NSW BKN006 BECMG 2110/2112 BKN020 PROB40 TEMPO 2114/2118 SHRA SCT022CB BKN035 =
LFSL 210200Z 2103/2112 VRB02KT 4500 BR NSC TEMPO 2103/2107 0600 FG VV/// PROB40 TEMPO 2103/2107 0300 BECMG 2107/2109 9999 NSW SCT015 =
SR / SS: 04:20 / 19:20 UTC (LFCC 2019-05-21)